Archival Weather

Heathrow

Heathrow, United Kingdom (EGLL)

Report from: Thursday, June 23, 2022 6:50 PM BST
Current time: Tuesday, August 16, 2022 7:26 AM BST

Current weather
Weather history
Weather forecast

Temperature23.0°C (73.4°F)
Dew point14.0°C (57.2°F)
Winds 12 kts (6.2 m/s, 13.8 mph) Vrb
Winds variableWinds variable from South-Southeast (160°) to West-Southwest (240°)
Visibility6.2 mi. (10 km)
Altimeter29.74 in.Hg (1007 mB)
Relative humidity57 %
Density altitude1,363 ft. (416 m)
Remarks Fully automated report
No significant changes expected in the next two hours
Flight conditions Visual Meteorological Conditions
Raw dataEGLL 231750Z AUTO 19012KT 160V240 9999 //////CB 23/14 Q1007 NOSIG
An error has occurred. This application may no longer respond until reloaded. Reload 🗙